PWSweather.com
Personal Weather Stations
Station Observations
KCAOCEAN4
Jeffries Ranch, Oceanside, CA 92057

Jeffries RanchOceanside, CA 92057

Lat: 33.2463208, Lon: -117.25335080000002

Elevation: 207

Station Type: Davis Vantage Vue

jeffriesranchweather.com

High Low Average
Temperature 68.4°F20.2°C 56.7°F13.7°C 60.8°F16.0°C
Dew Point 60.3°F15.7°C 55.0°F12.8°C 57.8°F14.3°C
Winds 8.1 mph 13.0 kmh Calm Calm 2.0 mph S3.2 kmh S
Wind Gusts 14.1 mph22.7 kmh -- 4.0 mph6.4 kmh
Humidity 97% 73% 90%
Pressure 30.03 in1016.9 mb 29.94 in1013.9 mb -
Precipitation 0.01 in0.3 mm - -
Hour Temp Dew Point Humidity Winds Wind Gusts Pressure Precip Precip Rate Daily Precip Total
12:07 AM 58.3°F14.6°C 55.9°F13.3°C 92% Calm Calm 2.0 mph3.2 kmh 30.02 in1016.6 mb 0.00 in0.0 mm 0.00 in0.0 mm 0.00 in0.0 mm
12:17 AM 58.3°F14.6°C 55.9°F13.3°C 92% 0.9 mph SW1.4 kmh SW 2.0 mph3.2 kmh 30.02 in1016.6 mb 0.00 in0.0 mm 0.00 in0.0 mm 0.00 in0.0 mm
12:27 AM 58.3°F14.6°C 55.9°F13.3°C 92% 0.9 mph WSW1.4 kmh WSW 3.0 mph4.8 kmh 30.02 in1016.6 mb 0.00 in0.0 mm 0.00 in0.0 mm 0.00 in0.0 mm
12:37 AM 58.3°F14.6°C 56.3°F13.5°C 93% 0.9 mph WSW1.4 kmh WSW 2.9 mph4.7 kmh 30.02 in1016.6 mb 0.00 in0.0 mm 0.00 in0.0 mm 0.00 in0.0 mm
12:47 AM 58.3°F14.6°C 56.3°F13.5°C 93% Calm Calm 2.0 mph3.2 kmh 30.01 in1016.3 mb 0.00 in0.0 mm 0.00 in0.0 mm 0.00 in0.0 mm
12:57 AM 58.5°F14.7°C 56.5°F13.6°C 93% Calm Calm -- 30.02 in1016.6 mb 0.00 in0.0 mm 0.00 in0.0 mm 0.00 in0.0 mm
01:07 AM 58.3°F14.6°C 56.3°F13.5°C 93% Calm Calm 2.0 mph3.2 kmh 30.02 in1016.6 mb 0.00 in0.0 mm 0.00 in0.0 mm 0.00 in0.0 mm
01:17 AM 58.3°F14.6°C 56.3°F13.5°C 93% Calm Calm 2.0 mph3.2 kmh 30.02 in1016.6 mb 0.00 in0.0 mm 0.00 in0.0 mm 0.00 in0.0 mm
01:27 AM 58.3°F14.6°C 56.3°F13.5°C 93% Calm Calm 0.9 mph1.4 kmh 30.02 in1016.6 mb 0.00 in0.0 mm 0.00 in0.0 mm 0.00 in0.0 mm
01:37 AM 58.3°F14.6°C 56.3°F13.5°C 93% Calm Calm 0.9 mph1.4 kmh 30.02 in1016.6 mb 0.00 in0.0 mm 0.00 in0.0 mm 0.00 in0.0 mm
01:47 AM 58.3°F14.6°C 56.3°F13.5°C 93% 0.9 mph NE1.4 kmh NE 2.0 mph3.2 kmh 30.01 in1016.3 mb 0.00 in0.0 mm 0.00 in0.0 mm 0.00 in0.0 mm
01:57 AM 58.1°F14.5°C 56.1°F13.4°C 93% Calm Calm 0.9 mph1.4 kmh 30.01 in1016.3 mb 0.00 in0.0 mm 0.00 in0.0 mm 0.00 in0.0 mm
02:07 AM 58.3°F14.6°C 56.3°F13.5°C 93% 0.9 mph W1.4 kmh W 2.0 mph3.2 kmh 30.02 in1016.6 mb 0.00 in0.0 mm 0.00 in0.0 mm 0.00 in0.0 mm
02:17 AM 58.3°F14.6°C 56.3°F13.5°C 93% Calm Calm 2.0 mph3.2 kmh 30.02 in1016.6 mb 0.00 in0.0 mm 0.00 in0.0 mm 0.00 in0.0 mm
02:27 AM 58.3°F14.6°C 56.3°F13.5°C 93% Calm Calm 2.0 mph3.2 kmh 30.03 in1016.9 mb 0.00 in0.0 mm 0.00 in0.0 mm 0.00 in0.0 mm
02:37 AM 58.1°F14.5°C 56.1°F13.4°C 93% Calm Calm 2.0 mph3.2 kmh 30.02 in1016.6 mb 0.00 in0.0 mm 0.00 in0.0 mm 0.00 in0.0 mm
02:47 AM 58.3°F14.6°C 56.3°F13.5°C 93% Calm Calm -- 30.01 in1016.3 mb 0.00 in0.0 mm 0.00 in0.0 mm 0.00 in0.0 mm
02:57 AM 57.9°F14.4°C 55.9°F13.3°C 93% Calm Calm 2.0 mph3.2 kmh 30.01 in1016.3 mb 0.00 in0.0 mm 0.00 in0.0 mm 0.00 in0.0 mm
03:07 AM 58.1°F14.5°C 56.1°F13.4°C 93% 0.9 mph ENE1.4 kmh ENE 4.0 mph6.4 kmh 30.00 in1015.9 mb 0.00 in0.0 mm 0.00 in0.0 mm 0.00 in0.0 mm
03:17 AM 58.1°F14.5°C 56.1°F13.4°C 93% 0.9 mph ENE1.4 kmh ENE 4.0 mph6.4 kmh 30.00 in1015.9 mb 0.00 in0.0 mm 0.00 in0.0 mm 0.00 in0.0 mm
03:27 AM 57.9°F14.4°C 55.9°F13.3°C 93% Calm Calm 2.0 mph3.2 kmh 30.00 in1015.9 mb 0.00 in0.0 mm 0.00 in0.0 mm 0.00 in0.0 mm
03:37 AM 57.9°F14.4°C 55.9°F13.3°C 93% Calm Calm 2.0 mph3.2 kmh 30.00 in1015.9 mb 0.00 in0.0 mm 0.00 in0.0 mm 0.00 in0.0 mm
03:47 AM 57.9°F14.4°C 55.9°F13.3°C 93% Calm Calm 0.9 mph1.4 kmh 30.00 in1015.9 mb 0.00 in0.0 mm 0.00 in0.0 mm 0.00 in0.0 mm
03:57 AM 57.7°F14.3°C 55.9°F13.3°C 94% 0.9 mph E1.4 kmh E 3.0 mph4.8 kmh 29.99 in1015.6 mb 0.00 in0.0 mm 0.00 in0.0 mm 0.00 in0.0 mm
04:07 AM 57.7°F14.3°C 55.9°F13.3°C 94% 0.9 mph NE1.4 kmh NE 4.0 mph6.4 kmh 29.99 in1015.6 mb 0.00 in0.0 mm 0.00 in0.0 mm 0.00 in0.0 mm
04:17 AM 57.7°F14.3°C 55.9°F13.3°C 94% 0.9 mph NNE1.4 kmh NNE 4.0 mph6.4 kmh 29.98 in1015.2 mb 0.00 in0.0 mm 0.00 in0.0 mm 0.00 in0.0 mm
04:27 AM 57.7°F14.3°C 55.9°F13.3°C 94% 0.9 mph ENE1.4 kmh ENE 2.9 mph4.7 kmh 29.98 in1015.2 mb 0.00 in0.0 mm 0.00 in0.0 mm 0.00 in0.0 mm
04:37 AM 57.7°F14.3°C 55.8°F13.2°C 93% 0.9 mph NE1.4 kmh NE 4.0 mph6.4 kmh 29.98 in1015.2 mb 0.00 in0.0 mm 0.00 in0.0 mm 0.00 in0.0 mm
04:47 AM 57.7°F14.3°C 55.9°F13.3°C 94% 0.9 mph NE1.4 kmh NE 2.9 mph4.7 kmh 29.98 in1015.2 mb 0.00 in0.0 mm 0.00 in0.0 mm 0.00 in0.0 mm
04:57 AM 57.6°F14.2°C 55.8°F13.2°C 94% 0.9 mph ENE1.4 kmh ENE 5.0 mph8.0 kmh 29.98 in1015.2 mb 0.00 in0.0 mm 0.00 in0.0 mm 0.00 in0.0 mm
05:07 AM 57.4°F14.1°C 55.6°F13.1°C 94% 0.9 mph NE1.4 kmh NE 4.0 mph6.4 kmh 29.97 in1014.9 mb 0.00 in0.0 mm 0.00 in0.0 mm 0.00 in0.0 mm
05:17 AM 57.4°F14.1°C 55.6°F13.1°C 94% 0.9 mph NE1.4 kmh NE 2.9 mph4.7 kmh 29.97 in1014.9 mb 0.00 in0.0 mm 0.00 in0.0 mm 0.00 in0.0 mm
05:27 AM 57.4°F14.1°C 55.6°F13.1°C 94% 2.9 mph ENE4.7 kmh ENE 5.0 mph8.0 kmh 29.97 in1014.9 mb 0.00 in0.0 mm 0.00 in0.0 mm 0.00 in0.0 mm
05:37 AM 57.2°F14.0°C 55.4°F13.0°C 94% 0.9 mph NE1.4 kmh NE 2.9 mph4.7 kmh 29.97 in1014.9 mb 0.00 in0.0 mm 0.00 in0.0 mm 0.00 in0.0 mm
05:47 AM 57.0°F13.9°C 55.2°F12.9°C 94% 2.0 mph ENE3.2 kmh ENE 4.0 mph6.4 kmh 29.97 in1014.9 mb 0.00 in0.0 mm 0.00 in0.0 mm 0.00 in0.0 mm
05:57 AM 56.8°F13.8°C 55.2°F12.9°C 94% 0.9 mph NW1.4 kmh NW 2.0 mph3.2 kmh 29.98 in1015.2 mb 0.00 in0.0 mm 0.00 in0.0 mm 0.00 in0.0 mm
06:07 AM 56.8°F13.8°C 55.2°F12.9°C 94% Calm Calm 2.0 mph3.2 kmh 29.98 in1015.2 mb 0.00 in0.0 mm 0.00 in0.0 mm 0.00 in0.0 mm
06:17 AM 56.8°F13.8°C 55.2°F12.9°C 94% Calm Calm 2.0 mph3.2 kmh 29.97 in1014.9 mb 0.00 in0.0 mm 0.00 in0.0 mm 0.00 in0.0 mm
06:27 AM 56.8°F13.8°C 55.2°F12.9°C 94% Calm Calm 2.0 mph3.2 kmh 29.97 in1014.9 mb 0.00 in0.0 mm 0.00 in0.0 mm 0.00 in0.0 mm
06:37 AM 56.8°F13.8°C 55.2°F12.9°C 94% 0.9 mph SSW1.4 kmh SSW 2.9 mph4.7 kmh 29.98 in1015.2 mb 0.00 in0.0 mm 0.00 in0.0 mm 0.00 in0.0 mm
06:47 AM 56.8°F13.8°C 55.2°F12.9°C 94% Calm Calm 2.0 mph3.2 kmh 29.98 in1015.2 mb 0.00 in0.0 mm 0.00 in0.0 mm 0.00 in0.0 mm
06:57 AM 56.8°F13.8°C 55.2°F12.9°C 94% Calm Calm 2.0 mph3.2 kmh 29.98 in1015.2 mb 0.00 in0.0 mm 0.00 in0.0 mm 0.00 in0.0 mm
07:07 AM 56.7°F13.7°C 55.0°F12.8°C 94% Calm Calm 0.9 mph1.4 kmh 29.98 in1015.2 mb 0.00 in0.0 mm 0.00 in0.0 mm 0.00 in0.0 mm
07:27 AM 56.8°F13.8°C 55.2°F12.9°C 94% Calm Calm 2.0 mph3.2 kmh 29.98 in1015.2 mb 0.00 in0.0 mm 0.00 in0.0 mm 0.00 in0.0 mm
07:37 AM 56.8°F13.8°C 55.2°F12.9°C 94% Calm Calm 0.9 mph1.4 kmh 29.99 in1015.6 mb 0.00 in0.0 mm 0.00 in0.0 mm 0.00 in0.0 mm
07:47 AM 56.8°F13.8°C 55.2°F12.9°C 94% 0.9 mph ESE1.4 kmh ESE 2.0 mph3.2 kmh 29.99 in1015.6 mb 0.00 in0.0 mm 0.00 in0.0 mm 0.00 in0.0 mm
07:57 AM 56.8°F13.8°C 55.2°F12.9°C 94% Calm Calm 2.0 mph3.2 kmh 29.99 in1015.6 mb 0.00 in0.0 mm 0.00 in0.0 mm 0.00 in0.0 mm
08:07 AM 57.0°F13.9°C 55.2°F12.9°C 94% Calm Calm 2.0 mph3.2 kmh 30.00 in1015.9 mb 0.00 in0.0 mm 0.00 in0.0 mm 0.00 in0.0 mm
08:17 AM 57.0°F13.9°C 55.2°F12.9°C 94% Calm Calm 2.0 mph3.2 kmh 30.01 in1016.3 mb 0.00 in0.0 mm 0.00 in0.0 mm 0.00 in0.0 mm
08:27 AM 57.4°F14.1°C 55.6°F13.1°C 94% Calm Calm 0.9 mph1.4 kmh 30.01 in1016.3 mb 0.00 in0.0 mm 0.00 in0.0 mm 0.00 in0.0 mm
08:37 AM 57.6°F14.2°C 55.8°F13.2°C 94% Calm Calm 0.9 mph1.4 kmh 30.01 in1016.3 mb 0.00 in0.0 mm 0.00 in0.0 mm 0.00 in0.0 mm
08:47 AM 57.7°F14.3°C 55.9°F13.3°C 94% Calm Calm 2.0 mph3.2 kmh 30.01 in1016.3 mb 0.00 in0.0 mm 0.00 in0.0 mm 0.00 in0.0 mm
08:58 AM 57.9°F14.4°C 55.9°F13.3°C 93% Calm Calm 2.0 mph3.2 kmh 30.01 in1016.3 mb 0.00 in0.0 mm 0.00 in0.0 mm 0.00 in0.0 mm
09:08 AM 57.9°F14.4°C 55.9°F13.3°C 93% 0.9 mph ENE1.4 kmh ENE 4.0 mph6.4 kmh 30.01 in1016.3 mb 0.00 in0.0 mm 0.00 in0.0 mm 0.00 in0.0 mm
09:18 AM 57.9°F14.4°C 55.9°F13.3°C 93% 2.0 mph ENE3.2 kmh ENE 4.0 mph6.4 kmh 30.01 in1016.3 mb 0.00 in0.0 mm 0.00 in0.0 mm 0.00 in0.0 mm
09:28 AM 58.3°F14.6°C 56.3°F13.5°C 93% Calm Calm 3.0 mph4.8 kmh 30.02 in1016.6 mb 0.00 in0.0 mm 0.00 in0.0 mm 0.00 in0.0 mm
09:38 AM 58.3°F14.6°C 55.9°F13.3°C 92% 2.0 mph E3.2 kmh E 4.0 mph6.4 kmh 30.01 in1016.3 mb 0.00 in0.0 mm 0.00 in0.0 mm 0.00 in0.0 mm
09:48 AM 58.6°F14.8°C 56.3°F13.5°C 92% Calm Calm 2.0 mph3.2 kmh 30.02 in1016.6 mb 0.00 in0.0 mm 0.00 in0.0 mm 0.00 in0.0 mm
09:58 AM 59.0°F15.0°C 56.7°F13.7°C 92% Calm Calm 2.0 mph3.2 kmh 30.02 in1016.6 mb 0.00 in0.0 mm 0.00 in0.0 mm 0.00 in0.0 mm
10:08 AM 59.0°F15.0°C 56.3°F13.5°C 91% Calm Calm 2.0 mph3.2 kmh 30.02 in1016.6 mb 0.00 in0.0 mm 0.00 in0.0 mm 0.00 in0.0 mm
10:18 AM 59.7°F15.4°C 56.8°F13.8°C 90% Calm Calm 2.0 mph3.2 kmh 30.02 in1016.6 mb 0.00 in0.0 mm 0.00 in0.0 mm 0.00 in0.0 mm
10:28 AM 60.1°F15.6°C 56.5°F13.6°C 88% 0.9 mph ENE1.4 kmh ENE 2.0 mph3.2 kmh 30.01 in1016.3 mb 0.00 in0.0 mm 0.00 in0.0 mm 0.00 in0.0 mm
10:38 AM 60.4°F15.8°C 56.8°F13.8°C 88% 0.9 mph NW1.4 kmh NW 3.0 mph4.8 kmh 30.01 in1016.3 mb 0.00 in0.0 mm 0.00 in0.0 mm 0.00 in0.0 mm
10:48 AM 61.9°F16.6°C 57.9°F14.4°C 87% Calm Calm 2.0 mph3.2 kmh 30.01 in1016.3 mb 0.00 in0.0 mm 0.00 in0.0 mm 0.00 in0.0 mm
10:58 AM 62.8°F17.1°C 57.6°F14.2°C 83% 0.9 mph NW1.4 kmh NW 3.0 mph4.8 kmh 30.02 in1016.6 mb 0.00 in0.0 mm 0.00 in0.0 mm 0.00 in0.0 mm
11:08 AM 62.8°F17.1°C 57.9°F14.4°C 84% 0.9 mph W1.4 kmh W 4.0 mph6.4 kmh 30.01 in1016.3 mb 0.00 in0.0 mm 0.00 in0.0 mm 0.00 in0.0 mm
11:18 AM 64.0°F17.8°C 58.5°F14.7°C 82% Calm Calm 2.0 mph3.2 kmh 30.01 in1016.3 mb 0.00 in0.0 mm 0.00 in0.0 mm 0.00 in0.0 mm
11:28 AM 63.9°F17.7°C 58.3°F14.6°C 82% 0.9 mph WSW1.4 kmh WSW 4.0 mph6.4 kmh 30.01 in1016.3 mb 0.00 in0.0 mm 0.00 in0.0 mm 0.00 in0.0 mm
11:38 AM 64.9°F18.3°C 59.0°F15.0°C 81% 0.9 mph SW1.4 kmh SW 4.0 mph6.4 kmh 30.01 in1016.3 mb 0.00 in0.0 mm 0.00 in0.0 mm 0.00 in0.0 mm
11:48 AM 65.8°F18.8°C 58.8°F14.9°C 78% 2.0 mph W3.2 kmh W 4.0 mph6.4 kmh 30.00 in1015.9 mb 0.00 in0.0 mm 0.00 in0.0 mm 0.00 in0.0 mm
11:58 AM 66.2°F19.0°C 59.2°F15.1°C 78% 0.9 mph NW1.4 kmh NW 2.9 mph4.7 kmh 30.00 in1015.9 mb 0.00 in0.0 mm 0.00 in0.0 mm 0.00 in0.0 mm
12:08 PM 66.4°F19.1°C 59.0°F15.0°C 77% 2.0 mph W3.2 kmh W 6.0 mph9.7 kmh 30.00 in1015.9 mb 0.00 in0.0 mm 0.00 in0.0 mm 0.00 in0.0 mm
12:18 PM 66.7°F19.3°C 59.0°F15.0°C 76% 0.9 mph NW1.4 kmh NW 6.0 mph9.7 kmh 30.00 in1015.9 mb 0.00 in0.0 mm 0.00 in0.0 mm 0.00 in0.0 mm
12:28 PM 67.1°F19.5°C 58.8°F14.9°C 75% 2.9 mph NNW4.7 kmh NNW 6.0 mph9.7 kmh 29.99 in1015.6 mb 0.00 in0.0 mm 0.00 in0.0 mm 0.00 in0.0 mm
12:38 PM 67.8°F19.9°C 59.2°F15.1°C 74% 2.0 mph NW3.2 kmh NW 4.0 mph6.4 kmh 29.98 in1015.2 mb 0.00 in0.0 mm 0.00 in0.0 mm 0.00 in0.0 mm
12:48 PM 68.0°F20.0°C 59.0°F15.0°C 73% 2.0 mph WNW3.2 kmh WNW 6.9 mph11.1 kmh 29.98 in1015.2 mb 0.00 in0.0 mm 0.00 in0.0 mm 0.00 in0.0 mm
12:58 PM 68.4°F20.2°C 59.7°F15.4°C 74% 2.0 mph SW3.2 kmh SW 6.0 mph9.7 kmh 29.98 in1015.2 mb 0.00 in0.0 mm 0.00 in0.0 mm 0.00 in0.0 mm
01:08 PM 68.2°F20.1°C 60.3°F15.7°C 76% 4.0 mph W6.4 kmh W 8.1 mph13.0 kmh 29.98 in1015.2 mb 0.00 in0.0 mm 0.00 in0.0 mm 0.00 in0.0 mm
01:18 PM 67.6°F19.8°C 60.3°F15.7°C 77% 6.0 mph W9.7 kmh W 11.0 mph17.7 kmh 29.97 in1014.9 mb 0.00 in0.0 mm 0.00 in0.0 mm 0.00 in0.0 mm
01:28 PM 67.8°F19.9°C 59.9°F15.5°C 76% 6.0 mph WNW9.7 kmh WNW 11.0 mph17.7 kmh 29.97 in1014.9 mb 0.00 in0.0 mm 0.00 in0.0 mm 0.00 in0.0 mm
01:38 PM 67.3°F19.6°C 59.9°F15.5°C 77% 6.9 mph WNW11.1 kmh WNW 14.1 mph22.7 kmh 29.97 in1014.9 mb 0.00 in0.0 mm 0.00 in0.0 mm 0.00 in0.0 mm
01:48 PM 65.7°F18.7°C 59.4°F15.2°C 80% 8.1 mph WNW13.0 kmh WNW 14.1 mph22.7 kmh 29.97 in1014.9 mb 0.00 in0.0 mm 0.00 in0.0 mm 0.00 in0.0 mm
01:58 PM 65.1°F18.4°C 58.8°F14.9°C 80% 6.9 mph W11.1 kmh W 11.0 mph17.7 kmh 29.96 in1014.6 mb 0.00 in0.0 mm 0.00 in0.0 mm 0.00 in0.0 mm
02:08 PM 65.8°F18.8°C 59.5°F15.3°C 80% 4.9 mph SW7.9 kmh SW 8.9 mph14.3 kmh 29.96 in1014.6 mb 0.00 in0.0 mm 0.00 in0.0 mm 0.00 in0.0 mm
02:18 PM 65.8°F18.8°C 59.2°F15.1°C 79% 4.9 mph WSW7.9 kmh WSW 9.0 mph14.5 kmh 29.96 in1014.6 mb 0.00 in0.0 mm 0.00 in0.0 mm 0.00 in0.0 mm
02:28 PM 66.4°F19.1°C 59.7°F15.4°C 79% 4.9 mph SW7.9 kmh SW 11.0 mph17.7 kmh 29.96 in1014.6 mb 0.00 in0.0 mm 0.00 in0.0 mm 0.00 in0.0 mm
02:38 PM 66.7°F19.3°C 60.1°F15.6°C 79% 4.9 mph WNW7.9 kmh WNW 8.1 mph13.0 kmh 29.96 in1014.6 mb 0.00 in0.0 mm 0.00 in0.0 mm 0.00 in0.0 mm
02:48 PM 67.3°F19.6°C 59.9°F15.5°C 77% 2.9 mph WSW4.7 kmh WSW 6.9 mph11.1 kmh 29.95 in1014.2 mb 0.00 in0.0 mm 0.00 in0.0 mm 0.00 in0.0 mm
02:58 PM 67.3°F19.6°C 59.5°F15.3°C 76% 4.9 mph W7.9 kmh W 11.0 mph17.7 kmh 29.96 in1014.6 mb 0.00 in0.0 mm 0.00 in0.0 mm 0.00 in0.0 mm
03:08 PM 66.6°F19.2°C 59.9°F15.5°C 79% 6.0 mph W9.7 kmh W 12.1 mph19.5 kmh 29.96 in1014.6 mb 0.00 in0.0 mm 0.00 in0.0 mm 0.00 in0.0 mm
03:18 PM 66.4°F19.1°C 59.7°F15.4°C 79% 4.9 mph WNW7.9 kmh WNW 11.0 mph17.7 kmh 29.96 in1014.6 mb 0.00 in0.0 mm 0.00 in0.0 mm 0.00 in0.0 mm
03:28 PM 64.6°F18.1°C 58.6°F14.8°C 81% 8.1 mph WSW13.0 kmh WSW 14.1 mph22.7 kmh 29.96 in1014.6 mb 0.00 in0.0 mm 0.00 in0.0 mm 0.00 in0.0 mm
03:38 PM 63.7°F17.6°C 58.5°F14.7°C 83% 6.9 mph W11.1 kmh W 13.0 mph20.9 kmh 29.97 in1014.9 mb 0.00 in0.0 mm 0.00 in0.0 mm 0.00 in0.0 mm
03:48 PM 62.8°F17.1°C 58.3°F14.6°C 85% 6.0 mph W9.7 kmh W 11.0 mph17.7 kmh 29.96 in1014.6 mb 0.00 in0.0 mm 0.00 in0.0 mm 0.00 in0.0 mm
03:58 PM 62.2°F16.8°C 57.9°F14.4°C 86% 6.0 mph SW9.7 kmh SW 12.1 mph19.5 kmh 29.97 in1014.9 mb 0.00 in0.0 mm 0.00 in0.0 mm 0.00 in0.0 mm
04:08 PM 62.2°F16.8°C 58.3°F14.6°C 87% 4.0 mph WSW6.4 kmh WSW 8.9 mph14.3 kmh 29.96 in1014.6 mb 0.00 in0.0 mm 0.00 in0.0 mm 0.00 in0.0 mm
04:18 PM 62.1°F16.7°C 58.1°F14.5°C 87% 4.9 mph SW7.9 kmh SW 9.0 mph14.5 kmh 29.96 in1014.6 mb 0.00 in0.0 mm 0.00 in0.0 mm 0.00 in0.0 mm
04:28 PM 61.9°F16.6°C 58.3°F14.6°C 88% 4.9 mph W7.9 kmh W 11.0 mph17.7 kmh 29.96 in1014.6 mb 0.00 in0.0 mm 0.00 in0.0 mm 0.00 in0.0 mm
04:38 PM 61.7°F16.5°C 58.5°F14.7°C 89% 6.0 mph WNW9.7 kmh WNW 10.1 mph16.3 kmh 29.97 in1014.9 mb 0.00 in0.0 mm 0.00 in0.0 mm 0.00 in0.0 mm
04:48 PM 61.5°F16.4°C 58.3°F14.6°C 89% 4.9 mph SW7.9 kmh SW 8.9 mph14.3 kmh 29.97 in1014.9 mb 0.00 in0.0 mm 0.00 in0.0 mm 0.00 in0.0 mm
04:58 PM 61.7°F16.5°C 58.5°F14.7°C 89% 2.9 mph WSW4.7 kmh WSW 8.1 mph13.0 kmh 29.96 in1014.6 mb 0.00 in0.0 mm 0.00 in0.0 mm 0.00 in0.0 mm
05:08 PM 61.9°F16.6°C 58.6°F14.8°C 89% 2.9 mph WSW4.7 kmh WSW 8.1 mph13.0 kmh 29.96 in1014.6 mb 0.00 in0.0 mm 0.00 in0.0 mm 0.00 in0.0 mm
05:18 PM 61.9°F16.6°C 58.6°F14.8°C 89% 4.0 mph WNW6.4 kmh WNW 7.0 mph11.3 kmh 29.96 in1014.6 mb 0.00 in0.0 mm 0.00 in0.0 mm 0.00 in0.0 mm
05:28 PM 62.2°F16.8°C 59.0°F15.0°C 89% 2.0 mph SE3.2 kmh SE 4.9 mph7.9 kmh 29.95 in1014.2 mb 0.00 in0.0 mm 0.00 in0.0 mm 0.00 in0.0 mm
05:38 PM 62.2°F16.8°C 59.0°F15.0°C 89% 2.9 mph SW4.7 kmh SW 7.0 mph11.3 kmh 29.96 in1014.6 mb 0.00 in0.0 mm 0.00 in0.0 mm 0.00 in0.0 mm
05:48 PM 62.2°F16.8°C 59.0°F15.0°C 89% 2.9 mph SW4.7 kmh SW 6.9 mph11.1 kmh 29.95 in1014.2 mb 0.00 in0.0 mm 0.00 in0.0 mm 0.00 in0.0 mm
05:58 PM 62.1°F16.7°C 58.8°F14.9°C 89% 2.0 mph SW3.2 kmh SW 4.9 mph7.9 kmh 29.96 in1014.6 mb 0.00 in0.0 mm 0.00 in0.0 mm 0.00 in0.0 mm
06:08 PM 62.1°F16.7°C 58.8°F14.9°C 89% 2.0 mph WSW3.2 kmh WSW 6.0 mph9.7 kmh 29.96 in1014.6 mb 0.00 in0.0 mm 0.00 in0.0 mm 0.00 in0.0 mm
06:18 PM 61.9°F16.6°C 58.6°F14.8°C 89% 2.0 mph WSW3.2 kmh WSW 5.0 mph8.0 kmh 29.96 in1014.6 mb 0.00 in0.0 mm 0.00 in0.0 mm 0.00 in0.0 mm
06:28 PM 61.7°F16.5°C 58.8°F14.9°C 90% 2.9 mph WSW4.7 kmh WSW 6.0 mph9.7 kmh 29.97 in1014.9 mb 0.00 in0.0 mm 0.00 in0.0 mm 0.00 in0.0 mm
06:38 PM 61.5°F16.4°C 59.2°F15.1°C 92% 0.9 mph SE1.4 kmh SE 4.0 mph6.4 kmh 29.96 in1014.6 mb 0.00 in0.0 mm 0.00 in0.0 mm 0.00 in0.0 mm
06:48 PM 61.3°F16.3°C 59.4°F15.2°C 93% 2.0 mph SSE3.2 kmh SSE 7.0 mph11.3 kmh 29.94 in1013.9 mb 0.00 in0.0 mm 0.00 in0.0 mm 0.00 in0.0 mm
06:58 PM 61.3°F16.3°C 59.4°F15.2°C 93% 2.9 mph S4.7 kmh S 6.0 mph9.7 kmh 29.95 in1014.2 mb 0.00 in0.0 mm 0.00 in0.0 mm 0.00 in0.0 mm
07:08 PM 61.3°F16.3°C 59.4°F15.2°C 93% 2.0 mph WSW3.2 kmh WSW 4.0 mph6.4 kmh 29.96 in1014.6 mb 0.00 in0.0 mm 0.00 in0.0 mm 0.00 in0.0 mm
07:18 PM 61.3°F16.3°C 59.4°F15.2°C 93% Calm Calm 2.0 mph3.2 kmh 29.96 in1014.6 mb 0.00 in0.0 mm 0.00 in0.0 mm 0.00 in0.0 mm
07:28 PM 61.3°F16.3°C 59.4°F15.2°C 93% Calm Calm 0.9 mph1.4 kmh 29.96 in1014.6 mb 0.00 in0.0 mm 0.00 in0.0 mm 0.00 in0.0 mm
07:38 PM 61.5°F16.4°C 59.7°F15.4°C 94% Calm Calm 1.0 mph1.6 kmh 29.97 in1014.9 mb 0.00 in0.0 mm 0.00 in0.0 mm 0.00 in0.0 mm
07:48 PM 61.5°F16.4°C 59.7°F15.4°C 94% 0.9 mph W1.4 kmh W 2.0 mph3.2 kmh 29.97 in1014.9 mb 0.00 in0.0 mm 0.00 in0.0 mm 0.00 in0.0 mm
07:58 PM 61.5°F16.4°C 59.7°F15.4°C 94% Calm Calm 0.9 mph1.4 kmh 29.97 in1014.9 mb 0.00 in0.0 mm 0.00 in0.0 mm 0.00 in0.0 mm
08:08 PM 61.5°F16.4°C 59.7°F15.4°C 94% Calm Calm 0.9 mph1.4 kmh 29.97 in1014.9 mb 0.00 in0.0 mm 0.00 in0.0 mm 0.00 in0.0 mm
08:18 PM 61.3°F16.3°C 59.5°F15.3°C 94% Calm Calm -- 29.98 in1015.2 mb 0.00 in0.0 mm 0.00 in0.0 mm 0.00 in0.0 mm
08:28 PM 61.3°F16.3°C 59.5°F15.3°C 94% Calm Calm -- 29.98 in1015.2 mb 0.00 in0.0 mm 0.00 in0.0 mm 0.00 in0.0 mm
08:38 PM 61.0°F16.1°C 59.2°F15.1°C 94% Calm Calm -- 29.97 in1014.9 mb 0.00 in0.0 mm 0.00 in0.0 mm 0.00 in0.0 mm
08:48 PM 61.0°F16.1°C 59.2°F15.1°C 94% Calm Calm -- 29.98 in1015.2 mb 0.00 in0.0 mm 0.00 in0.0 mm 0.00 in0.0 mm
08:58 PM 60.6°F15.9°C 59.2°F15.1°C 95% Calm Calm -- 29.98 in1015.2 mb 0.00 in0.0 mm 0.00 in0.0 mm 0.00 in0.0 mm
09:08 PM 60.6°F15.9°C 59.2°F15.1°C 95% Calm Calm -- 29.98 in1015.2 mb 0.00 in0.0 mm 0.00 in0.0 mm 0.00 in0.0 mm
09:18 PM 60.6°F15.9°C 59.2°F15.1°C 95% Calm Calm -- 29.99 in1015.6 mb 0.00 in0.0 mm 0.00 in0.0 mm 0.00 in0.0 mm
09:28 PM 60.6°F15.9°C 59.2°F15.1°C 95% Calm Calm -- 29.99 in1015.6 mb 0.00 in0.0 mm 0.00 in0.0 mm 0.00 in0.0 mm
09:38 PM 60.6°F15.9°C 59.2°F15.1°C 95% Calm Calm 2.0 mph3.2 kmh 29.99 in1015.6 mb 0.00 in0.0 mm 0.00 in0.0 mm 0.00 in0.0 mm
09:48 PM 60.4°F15.8°C 59.0°F15.0°C 95% 2.0 mph W3.2 kmh W 2.9 mph4.7 kmh 30.00 in1015.9 mb 0.00 in0.0 mm 0.00 in0.0 mm 0.00 in0.0 mm
09:58 PM 60.4°F15.8°C 59.0°F15.0°C 95% 0.9 mph W1.4 kmh W 2.9 mph4.7 kmh 30.00 in1015.9 mb 0.00 in0.0 mm 0.00 in0.0 mm 0.00 in0.0 mm
10:08 PM 60.3°F15.7°C 58.8°F14.9°C 95% 0.9 mph WNW1.4 kmh WNW 5.0 mph8.0 kmh 29.99 in1015.6 mb 0.00 in0.0 mm 0.00 in0.0 mm 0.00 in0.0 mm
10:18 PM 60.3°F15.7°C 59.2°F15.1°C 96% 0.9 mph S1.4 kmh S 2.9 mph4.7 kmh 30.00 in1015.9 mb 0.00 in0.0 mm 0.00 in0.0 mm 0.00 in0.0 mm
10:28 PM 60.1°F15.6°C 59.0°F15.0°C 96% 2.0 mph WSW3.2 kmh WSW 5.0 mph8.0 kmh 29.99 in1015.6 mb 0.00 in0.0 mm 0.00 in0.0 mm 0.00 in0.0 mm
10:38 PM 60.1°F15.6°C 59.0°F15.0°C 96% 0.9 mph S1.4 kmh S 4.0 mph6.4 kmh 30.00 in1015.9 mb 0.00 in0.0 mm 0.00 in0.0 mm 0.00 in0.0 mm
10:48 PM 60.1°F15.6°C 59.0°F15.0°C 96% 0.9 mph SW1.4 kmh SW 4.0 mph6.4 kmh 30.00 in1015.9 mb 0.00 in0.0 mm 0.00 in0.0 mm 0.00 in0.0 mm
10:58 PM 60.1°F15.6°C 59.0°F15.0°C 96% 0.9 mph SW1.4 kmh SW 4.0 mph6.4 kmh 30.00 in1015.9 mb 0.00 in0.0 mm 0.00 in0.0 mm 0.00 in0.0 mm
11:08 PM 60.1°F15.6°C 59.0°F15.0°C 96% 2.0 mph WSW3.2 kmh WSW 5.0 mph8.0 kmh 30.00 in1015.9 mb 0.00 in0.0 mm 0.00 in0.0 mm 0.00 in0.0 mm
11:18 PM 60.1°F15.6°C 59.0°F15.0°C 96% 0.9 mph SSW1.4 kmh SSW 2.9 mph4.7 kmh 30.01 in1016.3 mb 0.00 in0.0 mm 0.00 in0.0 mm 0.00 in0.0 mm
11:28 PM 60.1°F15.6°C 59.0°F15.0°C 96% 0.9 mph SSE1.4 kmh SSE 2.9 mph4.7 kmh 30.00 in1015.9 mb 0.01 in0.3 mm 0.06 in1.5 mm 0.01 in0.3 mm
11:38 PM 60.1°F15.6°C 59.2°F15.1°C 97% 0.9 mph SE1.4 kmh SE 4.0 mph6.4 kmh 29.99 in1015.6 mb 0.01 in0.3 mm 0.00 in0.0 mm 0.01 in0.3 mm
11:48 PM 60.1°F15.6°C 59.2°F15.1°C 97% 0.9 mph SE1.4 kmh SE 4.0 mph6.4 kmh 29.99 in1015.6 mb 0.01 in0.3 mm 0.00 in0.0 mm 0.01 in0.3 mm
11:58 PM 60.1°F15.6°C 59.2°F15.1°C 97% 0.9 mph W1.4 kmh W 2.9 mph4.7 kmh 29.99 in1015.6 mb 0.01 in0.3 mm 0.00 in0.0 mm 0.01 in0.3 mm